Prospect, Indiana
Current Conditions -  °F | °C
As of 11:55 PM on Saturday 22 Nov 2014 (Local Time) from KDCY Reporting Station
Overcast Overcast  
Wind Chill: 53°   Ceiling: 6000
Heat Index: 53°   Visibility: 10mi
Dew Point: 38°   Wind: 8mph
Humidity: 58%   Direction: 170°S
Pressure: 29.99"   Gusts: NA
Location:  38.6165°N, 86.6265°W
Report Text: KDCY 230455Z AUTO 17007KT 10SM SCT050 BKN060 OVC110 12/04 A2999 RMK AO2 T01160036
Loading
Personal Weather Stations






























Interactive Weather Map New forecast layout! Learn more

10-Day Weather Forecast

Advertisements
Track Severe Weather on mobile